sensor_id;sensor_type;location;lat;lon;timestamp;P1;durP1;ratioP1;P2;durP2;ratioP2
74457;SDS011;62896;51.032;3.712;2023-03-15T00:02:38;5.4;;;1.8;;
74457;SDS011;62896;51.032;3.712;2023-03-15T00:05:58;5.4;;;1.8;;
74457;SDS011;62896;51.032;3.712;2023-03-15T00:09:18;5.4;;;1.8;;
74457;SDS011;62896;51.032;3.712;2023-03-15T00:12:38;5.4;;;1.8;;
74457;SDS011;62896;51.032;3.712;2023-03-15T00:15:59;5.4;;;1.8;;
74457;SDS011;62896;51.032;3.712;2023-03-15T00:19:18;5.4;;;1.8;;
74457;SDS011;62896;51.032;3.712;2023-03-15T00:22:38;5.4;;;1.8;;
74457;SDS011;62896;51.032;3.712;2023-03-15T00:25:58;5.4;;;1.8;;
74457;SDS011;62896;51.032;3.712;2023-03-15T00:29:18;3.5;;;0.7;;
74457;SDS011;62896;51.032;3.712;2023-03-15T00:32:38;3.5;;;0.7;;
74457;SDS011;62896;51.032;3.712;2023-03-15T00:35:58;3.5;;;0.7;;
74457;SDS011;62896;51.032;3.712;2023-03-15T00:39:18;3.5;;;0.7;;
74457;SDS011;62896;51.032;3.712;2023-03-15T00:42:38;3.5;;;0.7;;
74457;SDS011;62896;51.032;3.712;2023-03-15T00:45:58;3.5;;;0.7;;
74457;SDS011;62896;51.032;3.712;2023-03-15T00:49:18;3.5;;;0.7;;
74457;SDS011;62896;51.032;3.712;2023-03-15T00:52:38;3.6;;;0.5;;
74457;SDS011;62896;51.032;3.712;2023-03-15T00:56:02;3.6;;;0.5;;
74457;SDS011;62896;51.032;3.712;2023-03-15T00:59:18;3.6;;;0.5;;
74457;SDS011;62896;51.032;3.712;2023-03-15T01:02:38;3.6;;;0.5;;
74457;SDS011;62896;51.032;3.712;2023-03-15T01:06:00;3.6;;;0.5;;
74457;SDS011;62896;51.032;3.712;2023-03-15T01:09:18;3.6;;;0.5;;
74457;SDS011;62896;51.032;3.712;2023-03-15T01:12:38;3.6;;;0.5;;
74457;SDS011;62896;51.032;3.712;2023-03-15T01:15:58;3.6;;;0.5;;
74457;SDS011;62896;51.032;3.712;2023-03-15T01:19:18;4.8;;;1;;
74457;SDS011;62896;51.032;3.712;2023-03-15T01:22:38;4.8;;;1;;
74457;SDS011;62896;51.032;3.712;2023-03-15T01:25:58;4.8;;;1;;
74457;SDS011;62896;51.032;3.712;2023-03-15T01:29:18;4.8;;;1;;
74457;SDS011;62896;51.032;3.712;2023-03-15T01:32:38;4.8;;;1;;
74457;SDS011;62896;51.032;3.712;2023-03-15T01:36:00;4.8;;;1;;
74457;SDS011;62896;51.032;3.712;2023-03-15T01:39:18;4.8;;;1;;
74457;SDS011;62896;51.032;3.712;2023-03-15T01:43:10;2.8;;;1.2;;
74457;SDS011;62896;51.032;3.712;2023-03-15T01:46:00;2.8;;;1.2;;
74457;SDS011;62896;51.032;3.712;2023-03-15T01:49:19;2.8;;;1.2;;
74457;SDS011;62896;51.032;3.712;2023-03-15T01:52:38;2.8;;;1.2;;
74457;SDS011;62896;51.032;3.712;2023-03-15T01:55:58;2.8;;;1.2;;
74457;SDS011;62896;51.032;3.712;2023-03-15T01:59:20;2.8;;;1.2;;
74457;SDS011;62896;51.032;3.712;2023-03-15T02:02:39;2.8;;;1.2;;
74457;SDS011;62896;51.032;3.712;2023-03-15T02:05:59;2.8;;;1.2;;
74457;SDS011;62896;51.032;3.712;2023-03-15T02:09:18;6.2;;;1.4;;
74457;SDS011;62896;51.032;3.712;2023-03-15T02:12:40;6.2;;;1.4;;
74457;SDS011;62896;51.032;3.712;2023-03-15T02:15:58;6.2;;;1.4;;
74457;SDS011;62896;51.032;3.712;2023-03-15T02:19:22;6.2;;;1.4;;
74457;SDS011;62896;51.032;3.712;2023-03-15T02:22:40;6.2;;;1.4;;
74457;SDS011;62896;51.032;3.712;2023-03-15T02:26:00;6.2;;;1.4;;
74457;SDS011;62896;51.032;3.712;2023-03-15T02:29:18;6.2;;;1.4;;
74457;SDS011;62896;51.032;3.712;2023-03-15T02:32:38;5.1;;;1.3;;
74457;SDS011;62896;51.032;3.712;2023-03-15T02:36:05;5.1;;;1.3;;
74457;SDS011;62896;51.032;3.712;2023-03-15T02:39:19;5.1;;;1.3;;
74457;SDS011;62896;51.032;3.712;2023-03-15T02:42:38;5.1;;;1.3;;
74457;SDS011;62896;51.032;3.712;2023-03-15T02:45:58;5.1;;;1.3;;
74457;SDS011;62896;51.032;3.712;2023-03-15T02:49:19;5.1;;;1.3;;
74457;SDS011;62896;51.032;3.712;2023-03-15T02:52:38;5.1;;;1.3;;
74457;SDS011;62896;51.032;3.712;2023-03-15T02:55:58;5.1;;;1.3;;
74457;SDS011;62896;51.032;3.712;2023-03-15T02:59:18;4.7;;;1.3;;
74457;SDS011;62896;51.032;3.712;2023-03-15T03:02:38;4.7;;;1.3;;
74457;SDS011;62896;51.032;3.712;2023-03-15T03:05:58;4.7;;;1.3;;
74457;SDS011;62896;51.032;3.712;2023-03-15T03:09:18;4.7;;;1.3;;
74457;SDS011;62896;51.032;3.712;2023-03-15T03:12:38;4.7;;;1.3;;
74457;SDS011;62896;51.032;3.712;2023-03-15T03:15:58;4.7;;;1.3;;
74457;SDS011;62896;51.032;3.712;2023-03-15T03:19:18;4.7;;;1.3;;
74457;SDS011;62896;51.032;3.712;2023-03-15T03:22:38;5;;;1.9;;
74457;SDS011;62896;51.032;3.712;2023-03-15T03:25:59;5;;;1.9;;
74457;SDS011;62896;51.032;3.712;2023-03-15T03:29:18;5;;;1.9;;
74457;SDS011;62896;51.032;3.712;2023-03-15T03:32:38;5;;;1.9;;
74457;SDS011;62896;51.032;3.712;2023-03-15T03:35:59;5;;;1.9;;
74457;SDS011;62896;51.032;3.712;2023-03-15T03:39:18;5;;;1.9;;
74457;SDS011;62896;51.032;3.712;2023-03-15T03:42:38;5;;;1.9;;
74457;SDS011;62896;51.032;3.712;2023-03-15T03:45:58;5;;;1.9;;
74457;SDS011;62896;51.032;3.712;2023-03-15T03:49:18;4.8;;;1.7;;
74457;SDS011;62896;51.032;3.712;2023-03-15T03:52:38;4.8;;;1.7;;
74457;SDS011;62896;51.032;3.712;2023-03-15T03:55:58;4.8;;;1.7;;
74457;SDS011;62896;51.032;3.712;2023-03-15T03:59:18;4.8;;;1.7;;
74457;SDS011;62896;51.032;3.712;2023-03-15T04:02:38;4.8;;;1.7;;
74457;SDS011;62896;51.032;3.712;2023-03-15T04:05:58;4.8;;;1.7;;
74457;SDS011;62896;51.032;3.712;2023-03-15T04:09:18;4.8;;;1.7;;
74457;SDS011;62896;51.032;3.712;2023-03-15T04:12:39;4.9;;;1.9;;
74457;SDS011;62896;51.032;3.712;2023-03-15T04:15:58;4.9;;;1.9;;
74457;SDS011;62896;51.032;3.712;2023-03-15T04:19:18;4.9;;;1.9;;
74457;SDS011;62896;51.032;3.712;2023-03-15T04:22:38;4.9;;;1.9;;
74457;SDS011;62896;51.032;3.712;2023-03-15T04:25:58;4.9;;;1.9;;
74457;SDS011;62896;51.032;3.712;2023-03-15T04:29:18;4.9;;;1.9;;
74457;SDS011;62896;51.032;3.712;2023-03-15T04:32:38;4.9;;;1.9;;
74457;SDS011;62896;51.032;3.712;2023-03-15T04:35:58;4.9;;;1.9;;
74457;SDS011;62896;51.032;3.712;2023-03-15T04:39:18;4.7;;;1.7;;
74457;SDS011;62896;51.032;3.712;2023-03-15T04:42:38;4.7;;;1.7;;
74457;SDS011;62896;51.032;3.712;2023-03-15T04:45:58;4.7;;;1.7;;
74457;SDS011;62896;51.032;3.712;2023-03-15T04:49:18;4.7;;;1.7;;
74457;SDS011;62896;51.032;3.712;2023-03-15T04:52:38;4.7;;;1.7;;
74457;SDS011;62896;51.032;3.712;2023-03-15T04:55:58;4.7;;;1.7;;
74457;SDS011;62896;51.032;3.712;2023-03-15T04:59:18;4.7;;;1.7;;
74457;SDS011;62896;51.032;3.712;2023-03-15T05:02:38;4.5;;;1.9;;
74457;SDS011;62896;51.032;3.712;2023-03-15T05:05:59;4.5;;;1.9;;
74457;SDS011;62896;51.032;3.712;2023-03-15T05:09:18;4.5;;;1.9;;
74457;SDS011;62896;51.032;3.712;2023-03-15T05:12:38;4.5;;;1.9;;
74457;SDS011;62896;51.032;3.712;2023-03-15T05:15:58;4.5;;;1.9;;
74457;SDS011;62896;51.032;3.712;2023-03-15T05:19:18;4.5;;;1.9;;
74457;SDS011;62896;51.032;3.712;2023-03-15T05:22:38;4.5;;;1.9;;
74457;SDS011;62896;51.032;3.712;2023-03-15T05:25:58;4.5;;;1.9;;
74457;SDS011;62896;51.032;3.712;2023-03-15T05:29:18;5.5;;;2.1;;
74457;SDS011;62896;51.032;3.712;2023-03-15T05:32:38;5.5;;;2.1;;
74457;SDS011;62896;51.032;3.712;2023-03-15T05:35:58;5.5;;;2.1;;
74457;SDS011;62896;51.032;3.712;2023-03-15T05:39:18;5.5;;;2.1;;
74457;SDS011;62896;51.032;3.712;2023-03-15T05:42:38;5.5;;;2.1;;
74457;SDS011;62896;51.032;3.712;2023-03-15T05:45:58;5.5;;;2.1;;
74457;SDS011;62896;51.032;3.712;2023-03-15T05:49:18;5.5;;;2.1;;
74457;SDS011;62896;51.032;3.712;2023-03-15T05:52:38;6.5;;;2.8;;
74457;SDS011;62896;51.032;3.712;2023-03-15T05:55:58;6.5;;;2.8;;
74457;SDS011;62896;51.032;3.712;2023-03-15T05:59:18;6.5;;;2.8;;
74457;SDS011;62896;51.032;3.712;2023-03-15T06:02:38;6.5;;;2.8;;
74457;SDS011;62896;51.032;3.712;2023-03-15T06:05:58;6.5;;;2.8;;
74457;SDS011;62896;51.032;3.712;2023-03-15T06:09:18;6.5;;;2.8;;
74457;SDS011;62896;51.032;3.712;2023-03-15T06:12:38;6.5;;;2.8;;
74457;SDS011;62896;51.032;3.712;2023-03-15T06:15:58;6.5;;;2.8;;
74457;SDS011;62896;51.032;3.712;2023-03-15T06:19:18;11;;;3.2;;
74457;SDS011;62896;51.032;3.712;2023-03-15T06:22:38;11;;;3.2;;
74457;SDS011;62896;51.032;3.712;2023-03-15T06:25:58;11;;;3.2;;
74457;SDS011;62896;51.032;3.712;2023-03-15T06:29:18;11;;;3.2;;
74457;SDS011;62896;51.032;3.712;2023-03-15T06:32:38;11;;;3.2;;
74457;SDS011;62896;51.032;3.712;2023-03-15T06:35:58;11;;;3.2;;
74457;SDS011;62896;51.032;3.712;2023-03-15T06:39:18;11;;;3.2;;
74457;SDS011;62896;51.032;3.712;2023-03-15T06:42:39;7.6;;;3.5;;
74457;SDS011;62896;51.032;3.712;2023-03-15T06:45:58;7.6;;;3.5;;
74457;SDS011;62896;51.032;3.712;2023-03-15T06:49:18;7.6;;;3.5;;
74457;SDS011;62896;51.032;3.712;2023-03-15T06:52:38;7.6;;;3.5;;
74457;SDS011;62896;51.032;3.712;2023-03-15T06:55:58;7.6;;;3.5;;
74457;SDS011;62896;51.032;3.712;2023-03-15T06:59:18;7.6;;;3.5;;
74457;SDS011;62896;51.032;3.712;2023-03-15T07:02:38;7.6;;;3.5;;
74457;SDS011;62896;51.032;3.712;2023-03-15T07:05:58;7.6;;;3.5;;
74457;SDS011;62896;51.032;3.712;2023-03-15T07:09:18;7.9;;;3.7;;
74457;SDS011;62896;51.032;3.712;2023-03-15T07:12:38;7.9;;;3.7;;
74457;SDS011;62896;51.032;3.712;2023-03-15T07:15:58;7.9;;;3.7;;
74457;SDS011;62896;51.032;3.712;2023-03-15T07:19:18;7.9;;;3.7;;
74457;SDS011;62896;51.032;3.712;2023-03-15T07:22:38;7.9;;;3.7;;
74457;SDS011;62896;51.032;3.712;2023-03-15T07:25:58;7.9;;;3.7;;
74457;SDS011;62896;51.032;3.712;2023-03-15T07:29:18;7.9;;;3.7;;
74457;SDS011;62896;51.032;3.712;2023-03-15T07:32:38;6.8;;;2.5;;
74457;SDS011;62896;51.032;3.712;2023-03-15T07:35:58;6.8;;;2.5;;
74457;SDS011;62896;51.032;3.712;2023-03-15T07:39:18;6.8;;;2.5;;
74457;SDS011;62896;51.032;3.712;2023-03-15T07:42:38;6.8;;;2.5;;
74457;SDS011;62896;51.032;3.712;2023-03-15T07:45:58;6.8;;;2.5;;
74457;SDS011;62896;51.032;3.712;2023-03-15T07:49:18;6.8;;;2.5;;
74457;SDS011;62896;51.032;3.712;2023-03-15T07:52:38;6.8;;;2.5;;
74457;SDS011;62896;51.032;3.712;2023-03-15T07:55:58;6.8;;;2.5;;
74457;SDS011;62896;51.032;3.712;2023-03-15T07:59:18;4.9;;;2.3;;
74457;SDS011;62896;51.032;3.712;2023-03-15T08:02:39;4.9;;;2.3;;
74457;SDS011;62896;51.032;3.712;2023-03-15T08:05:58;4.9;;;2.3;;
74457;SDS011;62896;51.032;3.712;2023-03-15T08:09:18;4.9;;;2.3;;
74457;SDS011;62896;51.032;3.712;2023-03-15T08:12:38;4.9;;;2.3;;
74457;SDS011;62896;51.032;3.712;2023-03-15T08:15:58;4.9;;;2.3;;
74457;SDS011;62896;51.032;3.712;2023-03-15T08:19:18;4.9;;;2.3;;
74457;SDS011;62896;51.032;3.712;2023-03-15T08:22:39;6.6;;;2.5;;
74457;SDS011;62896;51.032;3.712;2023-03-15T08:25:58;6.6;;;2.5;;
74457;SDS011;62896;51.032;3.712;2023-03-15T08:29:18;6.6;;;2.5;;
74457;SDS011;62896;51.032;3.712;2023-03-15T08:32:38;6.6;;;2.5;;
74457;SDS011;62896;51.032;3.712;2023-03-15T08:35:58;6.6;;;2.5;;
74457;SDS011;62896;51.032;3.712;2023-03-15T08:39:18;6.6;;;2.5;;
74457;SDS011;62896;51.032;3.712;2023-03-15T08:42:38;6.6;;;2.5;;
74457;SDS011;62896;51.032;3.712;2023-03-15T08:45:58;6.6;;;2.5;;
74457;SDS011;62896;51.032;3.712;2023-03-15T08:49:18;5.1;;;3;;
74457;SDS011;62896;51.032;3.712;2023-03-15T08:52:39;5.1;;;3;;
74457;SDS011;62896;51.032;3.712;2023-03-15T08:55:59;5.1;;;3;;
74457;SDS011;62896;51.032;3.712;2023-03-15T08:59:18;5.1;;;3;;
74457;SDS011;62896;51.032;3.712;2023-03-15T09:02:38;5.1;;;3;;
74457;SDS011;62896;51.032;3.712;2023-03-15T09:05:59;5.1;;;3;;
74457;SDS011;62896;51.032;3.712;2023-03-15T09:09:18;5.1;;;3;;
74457;SDS011;62896;51.032;3.712;2023-03-15T09:12:38;5.9;;;2.2;;
74457;SDS011;62896;51.032;3.712;2023-03-15T09:15:58;5.9;;;2.2;;
74457;SDS011;62896;51.032;3.712;2023-03-15T09:19:18;5.9;;;2.2;;
74457;SDS011;62896;51.032;3.712;2023-03-15T09:22:39;5.9;;;2.2;;
74457;SDS011;62896;51.032;3.712;2023-03-15T09:25:58;5.9;;;2.2;;
74457;SDS011;62896;51.032;3.712;2023-03-15T09:29:18;5.9;;;2.2;;
74457;SDS011;62896;51.032;3.712;2023-03-15T09:32:39;5.9;;;2.2;;
74457;SDS011;62896;51.032;3.712;2023-03-15T09:35:58;5.9;;;2.2;;
74457;SDS011;62896;51.032;3.712;2023-03-15T09:39:19;3.9;;;1.6;;
74457;SDS011;62896;51.032;3.712;2023-03-15T09:42:40;3.9;;;1.6;;
74457;SDS011;62896;51.032;3.712;2023-03-15T09:46:01;3.9;;;1.6;;
74457;SDS011;62896;51.032;3.712;2023-03-15T09:49:19;3.9;;;1.6;;
74457;SDS011;62896;51.032;3.712;2023-03-15T09:52:39;3.9;;;1.6;;
74457;SDS011;62896;51.032;3.712;2023-03-15T09:55:58;3.9;;;1.6;;
74457;SDS011;62896;51.032;3.712;2023-03-15T09:59:18;3.9;;;1.6;;
74457;SDS011;62896;51.032;3.712;2023-03-15T10:02:41;7.1;;;1.6;;
74457;SDS011;62896;51.032;3.712;2023-03-15T10:05:59;7.1;;;1.6;;
74457;SDS011;62896;51.032;3.712;2023-03-15T10:09:19;7.1;;;1.6;;
74457;SDS011;62896;51.032;3.712;2023-03-15T10:12:38;7.1;;;1.6;;
74457;SDS011;62896;51.032;3.712;2023-03-15T10:16:01;7.1;;;1.6;;
74457;SDS011;62896;51.032;3.712;2023-03-15T10:19:21;7.1;;;1.6;;
74457;SDS011;62896;51.032;3.712;2023-03-15T10:22:39;7.1;;;1.6;;
74457;SDS011;62896;51.032;3.712;2023-03-15T10:25:58;7.1;;;1.6;;
74457;SDS011;62896;51.032;3.712;2023-03-15T10:29:19;3.3;;;1.3;;
74457;SDS011;62896;51.032;3.712;2023-03-15T10:32:39;3.3;;;1.3;;
74457;SDS011;62896;51.032;3.712;2023-03-15T10:35:59;3.3;;;1.3;;
74457;SDS011;62896;51.032;3.712;2023-03-15T10:39:18;3.3;;;1.3;;
74457;SDS011;62896;51.032;3.712;2023-03-15T10:42:38;3.3;;;1.3;;
74457;SDS011;62896;51.032;3.712;2023-03-15T10:45:59;3.3;;;1.3;;
74457;SDS011;62896;51.032;3.712;2023-03-15T10:49:19;3.3;;;1.3;;
74457;SDS011;62896;51.032;3.712;2023-03-15T10:52:39;5.9;;;1.2;;
74457;SDS011;62896;51.032;3.712;2023-03-15T10:55:59;5.9;;;1.2;;
74457;SDS011;62896;51.032;3.712;2023-03-15T10:59:19;5.9;;;1.2;;
74457;SDS011;62896;51.032;3.712;2023-03-15T11:02:41;5.9;;;1.2;;
74457;SDS011;62896;51.032;3.712;2023-03-15T11:05:59;5.9;;;1.2;;
74457;SDS011;62896;51.032;3.712;2023-03-15T11:09:20;5.9;;;1.2;;
74457;SDS011;62896;51.032;3.712;2023-03-15T11:12:38;5.9;;;1.2;;
74457;SDS011;62896;51.032;3.712;2023-03-15T11:16:00;5.9;;;1.2;;
74457;SDS011;62896;51.032;3.712;2023-03-15T11:19:19;2.3;;;0.8;;
74457;SDS011;62896;51.032;3.712;2023-03-15T11:22:39;2.3;;;0.8;;
74457;SDS011;62896;51.032;3.712;2023-03-15T11:25:59;2.3;;;0.8;;
74457;SDS011;62896;51.032;3.712;2023-03-15T11:29:20;2.3;;;0.8;;
74457;SDS011;62896;51.032;3.712;2023-03-15T11:32:39;2.3;;;0.8;;
74457;SDS011;62896;51.032;3.712;2023-03-15T11:35:59;2.3;;;0.8;;
74457;SDS011;62896;51.032;3.712;2023-03-15T11:39:24;2.3;;;0.8;;
74457;SDS011;62896;51.032;3.712;2023-03-15T11:42:40;2.5;;;1;;
74457;SDS011;62896;51.032;3.712;2023-03-15T11:45:59;2.5;;;1;;
74457;SDS011;62896;51.032;3.712;2023-03-15T11:49:22;2.5;;;1;;
74457;SDS011;62896;51.032;3.712;2023-03-15T11:52:39;2.5;;;1;;
74457;SDS011;62896;51.032;3.712;2023-03-15T11:56:02;2.5;;;1;;
74457;SDS011;62896;51.032;3.712;2023-03-15T11:59:19;2.5;;;1;;
74457;SDS011;62896;51.032;3.712;2023-03-15T12:02:46;2.5;;;1;;
74457;SDS011;62896;51.032;3.712;2023-03-15T12:06:00;2.5;;;1;;
74457;SDS011;62896;51.032;3.712;2023-03-15T12:09:39;2.3;;;1;;
74457;SDS011;62896;51.032;3.712;2023-03-15T12:12:43;2.3;;;1;;
74457;SDS011;62896;51.032;3.712;2023-03-15T12:15:59;2.3;;;1;;
74457;SDS011;62896;51.032;3.712;2023-03-15T12:19:19;2.3;;;1;;
74457;SDS011;62896;51.032;3.712;2023-03-15T12:22:39;2.3;;;1;;
74457;SDS011;62896;51.032;3.712;2023-03-15T12:26:03;2.3;;;1;;
74457;SDS011;62896;51.032;3.712;2023-03-15T12:29:19;2.3;;;1;;
74457;SDS011;62896;51.032;3.712;2023-03-15T12:32:42;2;;;1.1;;
74457;SDS011;62896;51.032;3.712;2023-03-15T12:35:59;2;;;1.1;;
74457;SDS011;62896;51.032;3.712;2023-03-15T12:39:20;2;;;1.1;;
74457;SDS011;62896;51.032;3.712;2023-03-15T12:42:58;2;;;1.1;;
74457;SDS011;62896;51.032;3.712;2023-03-15T12:45:59;2;;;1.1;;
74457;SDS011;62896;51.032;3.712;2023-03-15T12:49:27;2;;;1.1;;
74457;SDS011;62896;51.032;3.712;2023-03-15T12:52:39;2;;;1.1;;
74457;SDS011;62896;51.032;3.712;2023-03-15T12:56:11;2;;;1.1;;
74457;SDS011;62896;51.032;3.712;2023-03-15T12:59:26;3.4;;;1;;
74457;SDS011;62896;51.032;3.712;2023-03-15T13:02:42;3.4;;;1;;
74457;SDS011;62896;51.032;3.712;2023-03-15T13:06:01;3.4;;;1;;
74457;SDS011;62896;51.032;3.712;2023-03-15T13:09:22;3.4;;;1;;
74457;SDS011;62896;51.032;3.712;2023-03-15T13:12:39;3.4;;;1;;
74457;SDS011;62896;51.032;3.712;2023-03-15T13:16:03;3.4;;;1;;
74457;SDS011;62896;51.032;3.712;2023-03-15T13:19:20;3.4;;;1;;
74457;SDS011;62896;51.032;3.712;2023-03-15T13:22:41;3;;;1.1;;
74457;SDS011;62896;51.032;3.712;2023-03-15T13:26:02;3;;;1.1;;
74457;SDS011;62896;51.032;3.712;2023-03-15T13:29:20;3;;;1.1;;
74457;SDS011;62896;51.032;3.712;2023-03-15T13:32:41;3;;;1.1;;
74457;SDS011;62896;51.032;3.712;2023-03-15T13:35:59;3;;;1.1;;
74457;SDS011;62896;51.032;3.712;2023-03-15T13:39:20;3;;;1.1;;
74457;SDS011;62896;51.032;3.712;2023-03-15T13:42:39;3;;;1.1;;
74457;SDS011;62896;51.032;3.712;2023-03-15T13:45:59;3;;;1.1;;
74457;SDS011;62896;51.032;3.712;2023-03-15T13:49:19;4;;;1.6;;
74457;SDS011;62896;51.032;3.712;2023-03-15T13:52:39;4;;;1.6;;
74457;SDS011;62896;51.032;3.712;2023-03-15T13:55:59;4;;;1.6;;
74457;SDS011;62896;51.032;3.712;2023-03-15T13:59:19;4;;;1.6;;
74457;SDS011;62896;51.032;3.712;2023-03-15T14:02:43;4;;;1.6;;
74457;SDS011;62896;51.032;3.712;2023-03-15T14:05:59;4;;;1.6;;
74457;SDS011;62896;51.032;3.712;2023-03-15T14:09:20;4;;;1.6;;
74457;SDS011;62896;51.032;3.712;2023-03-15T14:12:39;3.3;;;1.1;;
74457;SDS011;62896;51.032;3.712;2023-03-15T14:16:00;3.3;;;1.1;;
74457;SDS011;62896;51.032;3.712;2023-03-15T14:19:19;3.3;;;1.1;;
74457;SDS011;62896;51.032;3.712;2023-03-15T14:22:39;3.3;;;1.1;;
74457;SDS011;62896;51.032;3.712;2023-03-15T14:26:01;3.3;;;1.1;;
74457;SDS011;62896;51.032;3.712;2023-03-15T14:29:20;3.3;;;1.1;;
74457;SDS011;62896;51.032;3.712;2023-03-15T14:32:39;3.3;;;1.1;;
74457;SDS011;62896;51.032;3.712;2023-03-15T14:35:59;3.3;;;1.1;;
74457;SDS011;62896;51.032;3.712;2023-03-15T14:39:23;2.3;;;1.1;;
74457;SDS011;62896;51.032;3.712;2023-03-15T14:42:39;2.3;;;1.1;;
74457;SDS011;62896;51.032;3.712;2023-03-15T14:45:59;2.3;;;1.1;;
74457;SDS011;62896;51.032;3.712;2023-03-15T14:49:21;2.3;;;1.1;;
74457;SDS011;62896;51.032;3.712;2023-03-15T14:52:39;2.3;;;1.1;;
74457;SDS011;62896;51.032;3.712;2023-03-15T14:55:59;2.3;;;1.1;;
74457;SDS011;62896;51.032;3.712;2023-03-15T14:59:19;2.3;;;1.1;;
74457;SDS011;62896;51.032;3.712;2023-03-15T15:02:39;3.1;;;1;;
74457;SDS011;62896;51.032;3.712;2023-03-15T15:05:59;3.1;;;1;;
74457;SDS011;62896;51.032;3.712;2023-03-15T15:09:21;3.1;;;1;;
74457;SDS011;62896;51.032;3.712;2023-03-15T15:12:39;3.1;;;1;;
74457;SDS011;62896;51.032;3.712;2023-03-15T15:15:59;3.1;;;1;;
74457;SDS011;62896;51.032;3.712;2023-03-15T15:19:19;3.1;;;1;;
74457;SDS011;62896;51.032;3.712;2023-03-15T15:22:39;3.1;;;1;;
74457;SDS011;62896;51.032;3.712;2023-03-15T15:25:59;3.1;;;1;;
74457;SDS011;62896;51.032;3.712;2023-03-15T15:29:19;3.8;;;1.6;;
74457;SDS011;62896;51.032;3.712;2023-03-15T15:32:39;3.8;;;1.6;;
74457;SDS011;62896;51.032;3.712;2023-03-15T15:35:59;3.8;;;1.6;;
74457;SDS011;62896;51.032;3.712;2023-03-15T15:39:20;3.8;;;1.6;;
74457;SDS011;62896;51.032;3.712;2023-03-15T15:42:39;3.8;;;1.6;;
74457;SDS011;62896;51.032;3.712;2023-03-15T15:45:59;3.8;;;1.6;;
74457;SDS011;62896;51.032;3.712;2023-03-15T15:49:19;3.8;;;1.6;;
74457;SDS011;62896;51.032;3.712;2023-03-15T15:52:40;4.4;;;1.7;;
74457;SDS011;62896;51.032;3.712;2023-03-15T15:55:59;4.4;;;1.7;;
74457;SDS011;62896;51.032;3.712;2023-03-15T15:59:19;4.4;;;1.7;;
74457;SDS011;62896;51.032;3.712;2023-03-15T16:02:39;4.4;;;1.7;;
74457;SDS011;62896;51.032;3.712;2023-03-15T16:05:59;4.4;;;1.7;;
74457;SDS011;62896;51.032;3.712;2023-03-15T16:09:19;4.4;;;1.7;;
74457;SDS011;62896;51.032;3.712;2023-03-15T16:12:39;4.4;;;1.7;;
74457;SDS011;62896;51.032;3.712;2023-03-15T16:15:59;4.4;;;1.7;;
74457;SDS011;62896;51.032;3.712;2023-03-15T16:19:19;2.7;;;0.9;;
74457;SDS011;62896;51.032;3.712;2023-03-15T16:22:39;2.7;;;0.9;;
74457;SDS011;62896;51.032;3.712;2023-03-15T16:25:59;2.7;;;0.9;;
74457;SDS011;62896;51.032;3.712;2023-03-15T16:29:20;2.7;;;0.9;;
74457;SDS011;62896;51.032;3.712;2023-03-15T16:32:39;2.7;;;0.9;;
74457;SDS011;62896;51.032;3.712;2023-03-15T16:35:59;2.7;;;0.9;;
74457;SDS011;62896;51.032;3.712;2023-03-15T16:39:19;2.7;;;0.9;;
74457;SDS011;62896;51.032;3.712;2023-03-15T16:42:39;3.4;;;1;;
74457;SDS011;62896;51.032;3.712;2023-03-15T16:45:59;3.4;;;1;;
74457;SDS011;62896;51.032;3.712;2023-03-15T16:49:19;3.4;;;1;;
74457;SDS011;62896;51.032;3.712;2023-03-15T16:52:39;3.4;;;1;;
74457;SDS011;62896;51.032;3.712;2023-03-15T16:55:59;3.4;;;1;;
74457;SDS011;62896;51.032;3.712;2023-03-15T16:59:19;3.4;;;1;;
74457;SDS011;62896;51.032;3.712;2023-03-15T17:02:39;3.4;;;1;;
74457;SDS011;62896;51.032;3.712;2023-03-15T17:05:59;3.4;;;1;;
74457;SDS011;62896;51.032;3.712;2023-03-15T17:09:20;2.5;;;0.8;;
74457;SDS011;62896;51.032;3.712;2023-03-15T17:12:39;2.5;;;0.8;;
74457;SDS011;62896;51.032;3.712;2023-03-15T17:15:59;2.5;;;0.8;;
74457;SDS011;62896;51.032;3.712;2023-03-15T17:19:19;2.5;;;0.8;;
74457;SDS011;62896;51.032;3.712;2023-03-15T17:22:39;2.5;;;0.8;;
74457;SDS011;62896;51.032;3.712;2023-03-15T17:25:59;2.5;;;0.8;;
74457;SDS011;62896;51.032;3.712;2023-03-15T17:29:19;2.5;;;0.8;;
74457;SDS011;62896;51.032;3.712;2023-03-15T17:32:39;3.1;;;1;;
74457;SDS011;62896;51.032;3.712;2023-03-15T17:35:59;3.1;;;1;;
74457;SDS011;62896;51.032;3.712;2023-03-15T17:39:19;3.1;;;1;;
74457;SDS011;62896;51.032;3.712;2023-03-15T17:42:39;3.1;;;1;;
74457;SDS011;62896;51.032;3.712;2023-03-15T17:45:59;3.1;;;1;;
74457;SDS011;62896;51.032;3.712;2023-03-15T17:49:19;3.1;;;1;;
74457;SDS011;62896;51.032;3.712;2023-03-15T17:52:39;3.1;;;1;;
74457;SDS011;62896;51.032;3.712;2023-03-15T17:55:59;3.1;;;1;;
74457;SDS011;62896;51.032;3.712;2023-03-15T17:59:19;4.3;;;1.6;;
74457;SDS011;62896;51.032;3.712;2023-03-15T18:02:39;4.3;;;1.6;;
74457;SDS011;62896;51.032;3.712;2023-03-15T18:05:59;4.3;;;1.6;;
74457;SDS011;62896;51.032;3.712;2023-03-15T18:09:19;4.3;;;1.6;;
74457;SDS011;62896;51.032;3.712;2023-03-15T18:12:39;4.3;;;1.6;;
74457;SDS011;62896;51.032;3.712;2023-03-15T18:15:59;4.3;;;1.6;;
74457;SDS011;62896;51.032;3.712;2023-03-15T18:19:19;4.3;;;1.6;;
74457;SDS011;62896;51.032;3.712;2023-03-15T18:22:39;3.8;;;1.7;;
74457;SDS011;62896;51.032;3.712;2023-03-15T18:25:59;3.8;;;1.7;;
74457;SDS011;62896;51.032;3.712;2023-03-15T18:29:19;3.8;;;1.7;;
74457;SDS011;62896;51.032;3.712;2023-03-15T18:32:39;3.8;;;1.7;;
74457;SDS011;62896;51.032;3.712;2023-03-15T18:35:59;3.8;;;1.7;;
74457;SDS011;62896;51.032;3.712;2023-03-15T18:39:19;3.8;;;1.7;;
74457;SDS011;62896;51.032;3.712;2023-03-15T18:42:39;3.8;;;1.7;;
74457;SDS011;62896;51.032;3.712;2023-03-15T18:45:59;3.8;;;1.7;;
74457;SDS011;62896;51.032;3.712;2023-03-15T18:49:19;5.5;;;1.7;;
74457;SDS011;62896;51.032;3.712;2023-03-15T18:52:39;5.5;;;1.7;;
74457;SDS011;62896;51.032;3.712;2023-03-15T18:55:59;5.5;;;1.7;;
74457;SDS011;62896;51.032;3.712;2023-03-15T18:59:19;5.5;;;1.7;;
74457;SDS011;62896;51.032;3.712;2023-03-15T19:02:39;5.5;;;1.7;;
74457;SDS011;62896;51.032;3.712;2023-03-15T19:06:01;5.5;;;1.7;;
74457;SDS011;62896;51.032;3.712;2023-03-15T19:09:19;5.5;;;1.7;;
74457;SDS011;62896;51.032;3.712;2023-03-15T19:12:39;6.4;;;2.5;;
74457;SDS011;62896;51.032;3.712;2023-03-15T19:15:59;6.4;;;2.5;;
74457;SDS011;62896;51.032;3.712;2023-03-15T19:19:19;6.4;;;2.5;;
74457;SDS011;62896;51.032;3.712;2023-03-15T19:22:39;6.4;;;2.5;;
74457;SDS011;62896;51.032;3.712;2023-03-15T19:25:59;6.4;;;2.5;;
74457;SDS011;62896;51.032;3.712;2023-03-15T19:29:19;6.4;;;2.5;;
74457;SDS011;62896;51.032;3.712;2023-03-15T19:32:39;6.4;;;2.5;;
74457;SDS011;62896;51.032;3.712;2023-03-15T19:35:59;6.4;;;2.5;;
74457;SDS011;62896;51.032;3.712;2023-03-15T19:39:19;5;;;2.6;;
74457;SDS011;62896;51.032;3.712;2023-03-15T19:42:39;5;;;2.6;;
74457;SDS011;62896;51.032;3.712;2023-03-15T19:45:59;5;;;2.6;;
74457;SDS011;62896;51.032;3.712;2023-03-15T19:49:19;5;;;2.6;;
74457;SDS011;62896;51.032;3.712;2023-03-15T19:52:39;5;;;2.6;;
74457;SDS011;62896;51.032;3.712;2023-03-15T19:56:02;5;;;2.6;;
74457;SDS011;62896;51.032;3.712;2023-03-15T19:59:19;5;;;2.6;;
74457;SDS011;62896;51.032;3.712;2023-03-15T20:02:39;5.7;;;3.2;;
74457;SDS011;62896;51.032;3.712;2023-03-15T20:06:02;5.7;;;3.2;;
74457;SDS011;62896;51.032;3.712;2023-03-15T20:09:19;5.7;;;3.2;;
74457;SDS011;62896;51.032;3.712;2023-03-15T20:12:39;5.7;;;3.2;;
74457;SDS011;62896;51.032;3.712;2023-03-15T20:15:59;5.7;;;3.2;;
74457;SDS011;62896;51.032;3.712;2023-03-15T20:19:19;5.7;;;3.2;;
74457;SDS011;62896;51.032;3.712;2023-03-15T20:22:39;5.7;;;3.2;;
74457;SDS011;62896;51.032;3.712;2023-03-15T20:26:02;5.7;;;3.2;;
74457;SDS011;62896;51.032;3.712;2023-03-15T20:29:19;7.9;;;4.1;;
74457;SDS011;62896;51.032;3.712;2023-03-15T20:32:39;7.9;;;4.1;;
74457;SDS011;62896;51.032;3.712;2023-03-15T20:35:59;7.9;;;4.1;;
74457;SDS011;62896;51.032;3.712;2023-03-15T20:39:19;7.9;;;4.1;;
74457;SDS011;62896;51.032;3.712;2023-03-15T20:42:39;7.9;;;4.1;;
74457;SDS011;62896;51.032;3.712;2023-03-15T20:46:00;7.9;;;4.1;;
74457;SDS011;62896;51.032;3.712;2023-03-15T20:49:19;7.9;;;4.1;;
74457;SDS011;62896;51.032;3.712;2023-03-15T20:52:39;8.6;;;4;;